sensor_id;sensor_type;location;lat;lon;timestamp;temperature;humidity
36990;DHT22;22898;52.102;5.776;2023-07-02T00:01:48;23.60;99.90
36990;DHT22;22898;52.102;5.776;2023-07-02T00:04:14;23.70;99.90
36990;DHT22;22898;52.102;5.776;2023-07-02T00:06:46;23.30;99.90
36990;DHT22;22898;52.102;5.776;2023-07-02T00:09:12;23.30;99.90
36990;DHT22;22898;52.102;5.776;2023-07-02T00:11:39;23.30;99.90
36990;DHT22;22898;52.102;5.776;2023-07-02T00:14:08;22.70;99.90
36990;DHT22;22898;52.102;5.776;2023-07-02T00:16:35;21.90;99.90
36990;DHT22;22898;52.102;5.776;2023-07-02T00:19:01;21.90;99.90
36990;DHT22;22898;52.102;5.776;2023-07-02T00:21:27;22.50;99.90
36990;DHT22;22898;52.102;5.776;2023-07-02T00:23:56;22.40;99.90
36990;DHT22;22898;52.102;5.776;2023-07-02T00:26:24;22.20;99.90
36990;DHT22;22898;52.102;5.776;2023-07-02T00:28:50;22.20;99.90
36990;DHT22;22898;52.102;5.776;2023-07-02T00:31:16;22.40;99.90
36990;DHT22;22898;52.102;5.776;2023-07-02T00:33:42;22.80;99.90
36990;DHT22;22898;52.102;5.776;2023-07-02T00:36:07;23.20;99.90
36990;DHT22;22898;52.102;5.776;2023-07-02T00:38:38;23.20;99.90
36990;DHT22;22898;52.102;5.776;2023-07-02T00:41:03;23.20;99.90
36990;DHT22;22898;52.102;5.776;2023-07-02T00:43:29;23.20;99.90
36990;DHT22;22898;52.102;5.776;2023-07-02T00:45:55;23.40;99.90
36990;DHT22;22898;52.102;5.776;2023-07-02T00:48:21;23.40;99.90
36990;DHT22;22898;52.102;5.776;2023-07-02T00:50:47;23.50;99.90
36990;DHT22;22898;52.102;5.776;2023-07-02T00:53:13;23.50;99.90
36990;DHT22;22898;52.102;5.776;2023-07-02T00:55:38;23.60;99.90
36990;DHT22;22898;52.102;5.776;2023-07-02T00:58:04;23.70;99.90
36990;DHT22;22898;52.102;5.776;2023-07-02T01:00:29;23.40;99.90
36990;DHT22;22898;52.102;5.776;2023-07-02T01:02:56;23.00;99.90
36990;DHT22;22898;52.102;5.776;2023-07-02T01:05:28;22.70;99.90
36990;DHT22;22898;52.102;5.776;2023-07-02T01:08:04;22.30;99.90
36990;DHT22;22898;52.102;5.776;2023-07-02T01:10:29;21.80;99.90
36990;DHT22;22898;52.102;5.776;2023-07-02T01:12:59;22.10;99.90
36990;DHT22;22898;52.102;5.776;2023-07-02T01:15:26;22.50;99.90
36990;DHT22;22898;52.102;5.776;2023-07-02T01:17:52;22.50;99.90
36990;DHT22;22898;52.102;5.776;2023-07-02T01:20:19;22.50;99.90
36990;DHT22;22898;52.102;5.776;2023-07-02T01:22:46;22.70;99.90
36990;DHT22;22898;52.102;5.776;2023-07-02T01:25:15;22.70;99.90
36990;DHT22;22898;52.102;5.776;2023-07-02T01:27:41;22.80;99.90
36990;DHT22;22898;52.102;5.776;2023-07-02T01:30:07;22.60;99.90
36990;DHT22;22898;52.102;5.776;2023-07-02T01:32:34;22.60;99.90
36990;DHT22;22898;52.102;5.776;2023-07-02T01:34:59;22.90;99.90
36990;DHT22;22898;52.102;5.776;2023-07-02T01:37:26;23.00;99.90
36990;DHT22;22898;52.102;5.776;2023-07-02T01:39:52;22.70;99.90
36990;DHT22;22898;52.102;5.776;2023-07-02T01:42:19;22.40;99.90
36990;DHT22;22898;52.102;5.776;2023-07-02T01:44:46;22.70;99.90
36990;DHT22;22898;52.102;5.776;2023-07-02T01:47:13;22.50;99.90
36990;DHT22;22898;52.102;5.776;2023-07-02T01:49:39;22.00;99.90
36990;DHT22;22898;52.102;5.776;2023-07-02T01:52:05;22.00;99.90
36990;DHT22;22898;52.102;5.776;2023-07-02T01:54:32;22.10;99.90
36990;DHT22;22898;52.102;5.776;2023-07-02T01:56:58;22.30;99.90
36990;DHT22;22898;52.102;5.776;2023-07-02T01:59:25;22.20;99.90
36990;DHT22;22898;52.102;5.776;2023-07-02T02:01:51;22.00;99.90
36990;DHT22;22898;52.102;5.776;2023-07-02T02:04:17;22.10;99.90
36990;DHT22;22898;52.102;5.776;2023-07-02T02:06:42;22.40;99.90
36990;DHT22;22898;52.102;5.776;2023-07-02T02:09:08;22.00;99.90
36990;DHT22;22898;52.102;5.776;2023-07-02T02:11:40;22.10;99.90
36990;DHT22;22898;52.102;5.776;2023-07-02T02:14:06;22.30;99.90
36990;DHT22;22898;52.102;5.776;2023-07-02T02:16:32;22.30;99.90
36990;DHT22;22898;52.102;5.776;2023-07-02T02:18:59;22.40;99.90
36990;DHT22;22898;52.102;5.776;2023-07-02T02:21:26;22.30;99.90
36990;DHT22;22898;52.102;5.776;2023-07-02T02:23:51;22.30;99.90
36990;DHT22;22898;52.102;5.776;2023-07-02T02:26:17;22.40;99.90
36990;DHT22;22898;52.102;5.776;2023-07-02T02:28:42;22.10;99.90
36990;DHT22;22898;52.102;5.776;2023-07-02T02:31:08;22.20;99.90
36990;DHT22;22898;52.102;5.776;2023-07-02T02:33:34;22.40;99.90
36990;DHT22;22898;52.102;5.776;2023-07-02T02:36:02;22.00;99.90
36990;DHT22;22898;52.102;5.776;2023-07-02T02:38:27;21.70;99.90
36990;DHT22;22898;52.102;5.776;2023-07-02T02:40:53;21.80;99.90
36990;DHT22;22898;52.102;5.776;2023-07-02T02:43:19;21.80;99.90
36990;DHT22;22898;52.102;5.776;2023-07-02T02:45:46;22.00;99.90
36990;DHT22;22898;52.102;5.776;2023-07-02T02:48:12;22.20;99.90
36990;DHT22;22898;52.102;5.776;2023-07-02T02:50:38;22.20;99.90
36990;DHT22;22898;52.102;5.776;2023-07-02T02:53:08;22.20;99.90
36990;DHT22;22898;52.102;5.776;2023-07-02T02:55:35;22.40;99.90
36990;DHT22;22898;52.102;5.776;2023-07-02T02:58:00;22.50;99.90
36990;DHT22;22898;52.102;5.776;2023-07-02T03:00:26;22.40;99.90
36990;DHT22;22898;52.102;5.776;2023-07-02T03:02:52;22.30;99.90
36990;DHT22;22898;52.102;5.776;2023-07-02T03:05:17;22.40;99.90
36990;DHT22;22898;52.102;5.776;2023-07-02T03:07:43;22.40;99.90
36990;DHT22;22898;52.102;5.776;2023-07-02T03:10:09;22.50;99.90
36990;DHT22;22898;52.102;5.776;2023-07-02T03:12:35;22.50;99.90
36990;DHT22;22898;52.102;5.776;2023-07-02T03:15:00;22.50;99.90
36990;DHT22;22898;52.102;5.776;2023-07-02T03:17:26;22.50;99.90
36990;DHT22;22898;52.102;5.776;2023-07-02T03:19:52;22.60;99.90
36990;DHT22;22898;52.102;5.776;2023-07-02T03:22:17;22.50;99.90
36990;DHT22;22898;52.102;5.776;2023-07-02T03:24:43;22.30;99.90
36990;DHT22;22898;52.102;5.776;2023-07-02T03:27:09;22.50;99.90
36990;DHT22;22898;52.102;5.776;2023-07-02T03:29:35;22.70;99.90
36990;DHT22;22898;52.102;5.776;2023-07-02T03:32:01;22.80;99.90
36990;DHT22;22898;52.102;5.776;2023-07-02T03:34:27;22.80;99.90
36990;DHT22;22898;52.102;5.776;2023-07-02T03:36:53;22.80;99.90
36990;DHT22;22898;52.102;5.776;2023-07-02T03:39:19;22.80;99.90
36990;DHT22;22898;52.102;5.776;2023-07-02T03:41:45;22.50;99.90
36990;DHT22;22898;52.102;5.776;2023-07-02T03:44:11;22.30;99.90
36990;DHT22;22898;52.102;5.776;2023-07-02T03:46:37;22.00;99.90
36990;DHT22;22898;52.102;5.776;2023-07-02T03:49:03;21.80;99.90
36990;DHT22;22898;52.102;5.776;2023-07-02T03:51:32;21.40;99.90
36990;DHT22;22898;52.102;5.776;2023-07-02T03:53:58;21.10;99.90
36990;DHT22;22898;52.102;5.776;2023-07-02T03:56:24;20.80;99.90
36990;DHT22;22898;52.102;5.776;2023-07-02T03:58:50;20.80;99.90
36990;DHT22;22898;52.102;5.776;2023-07-02T04:01:16;20.80;99.90
36990;DHT22;22898;52.102;5.776;2023-07-02T04:03:49;20.60;99.90
36990;DHT22;22898;52.102;5.776;2023-07-02T04:06:15;20.40;99.90
36990;DHT22;22898;52.102;5.776;2023-07-02T04:08:41;20.50;99.90
36990;DHT22;22898;52.102;5.776;2023-07-02T04:11:07;20.70;99.90
36990;DHT22;22898;52.102;5.776;2023-07-02T04:13:32;20.70;99.90
36990;DHT22;22898;52.102;5.776;2023-07-02T04:15:58;20.70;99.90
36990;DHT22;22898;52.102;5.776;2023-07-02T04:18:23;20.60;99.90
36990;DHT22;22898;52.102;5.776;2023-07-02T04:20:49;20.80;99.90
36990;DHT22;22898;52.102;5.776;2023-07-02T04:23:15;21.00;99.90
36990;DHT22;22898;52.102;5.776;2023-07-02T04:25:40;20.80;99.90
36990;DHT22;22898;52.102;5.776;2023-07-02T04:28:06;20.60;99.90
36990;DHT22;22898;52.102;5.776;2023-07-02T04:30:31;20.70;99.90
36990;DHT22;22898;52.102;5.776;2023-07-02T04:32:57;20.80;99.90
36990;DHT22;22898;52.102;5.776;2023-07-02T04:35:22;20.60;99.90
36990;DHT22;22898;52.102;5.776;2023-07-02T04:37:48;20.40;99.90
36990;DHT22;22898;52.102;5.776;2023-07-02T04:40:14;20.70;99.90
36990;DHT22;22898;52.102;5.776;2023-07-02T04:42:42;20.50;99.90
36990;DHT22;22898;52.102;5.776;2023-07-02T04:45:12;20.40;99.90
36990;DHT22;22898;52.102;5.776;2023-07-02T04:47:38;20.40;99.90
36990;DHT22;22898;52.102;5.776;2023-07-02T04:50:04;20.50;99.90
36990;DHT22;22898;52.102;5.776;2023-07-02T04:52:31;20.60;99.90
36990;DHT22;22898;52.102;5.776;2023-07-02T04:54:56;20.60;99.90
36990;DHT22;22898;52.102;5.776;2023-07-02T04:57:22;20.30;99.90
36990;DHT22;22898;52.102;5.776;2023-07-02T04:59:48;20.20;99.90
36990;DHT22;22898;52.102;5.776;2023-07-02T05:02:13;20.00;99.90
36990;DHT22;22898;52.102;5.776;2023-07-02T05:04:39;20.00;99.90
36990;DHT22;22898;52.102;5.776;2023-07-02T05:07:04;20.30;99.90
36990;DHT22;22898;52.102;5.776;2023-07-02T05:09:31;20.30;99.90
36990;DHT22;22898;52.102;5.776;2023-07-02T05:11:57;20.30;99.90
36990;DHT22;22898;52.102;5.776;2023-07-02T05:14:23;20.60;99.90
36990;DHT22;22898;52.102;5.776;2023-07-02T05:16:49;20.60;99.90
36990;DHT22;22898;52.102;5.776;2023-07-02T05:19:15;20.50;99.90
36990;DHT22;22898;52.102;5.776;2023-07-02T05:21:41;20.60;99.90
36990;DHT22;22898;52.102;5.776;2023-07-02T05:24:08;20.70;99.90
36990;DHT22;22898;52.102;5.776;2023-07-02T05:26:34;20.50;99.90
36990;DHT22;22898;52.102;5.776;2023-07-02T05:29:00;20.40;99.90
36990;DHT22;22898;52.102;5.776;2023-07-02T05:31:26;20.30;99.90
36990;DHT22;22898;52.102;5.776;2023-07-02T05:33:52;20.10;99.90
36990;DHT22;22898;52.102;5.776;2023-07-02T05:36:19;20.30;99.90
36990;DHT22;22898;52.102;5.776;2023-07-02T05:38:44;20.70;99.90
36990;DHT22;22898;52.102;5.776;2023-07-02T05:41:10;21.10;99.90
36990;DHT22;22898;52.102;5.776;2023-07-02T05:43:36;21.60;99.90
36990;DHT22;22898;52.102;5.776;2023-07-02T05:46:01;21.50;99.90
36990;DHT22;22898;52.102;5.776;2023-07-02T05:48:27;21.20;99.90
36990;DHT22;22898;52.102;5.776;2023-07-02T05:50:53;21.40;99.90
36990;DHT22;22898;52.102;5.776;2023-07-02T05:53:19;21.30;99.90
36990;DHT22;22898;52.102;5.776;2023-07-02T05:55:45;20.90;99.90
36990;DHT22;22898;52.102;5.776;2023-07-02T05:58:11;20.80;99.90
36990;DHT22;22898;52.102;5.776;2023-07-02T06:00:36;20.90;99.90
36990;DHT22;22898;52.102;5.776;2023-07-02T06:03:02;21.10;99.90
36990;DHT22;22898;52.102;5.776;2023-07-02T06:05:28;21.10;99.90
36990;DHT22;22898;52.102;5.776;2023-07-02T06:07:54;21.20;99.90
36990;DHT22;22898;52.102;5.776;2023-07-02T06:10:20;21.30;99.90
36990;DHT22;22898;52.102;5.776;2023-07-02T06:12:45;21.30;99.90
36990;DHT22;22898;52.102;5.776;2023-07-02T06:15:11;20.80;99.90
36990;DHT22;22898;52.102;5.776;2023-07-02T06:17:36;20.90;99.90
36990;DHT22;22898;52.102;5.776;2023-07-02T06:20:05;21.30;99.90
36990;DHT22;22898;52.102;5.776;2023-07-02T06:22:31;21.60;99.90
36990;DHT22;22898;52.102;5.776;2023-07-02T06:24:57;21.80;99.90
36990;DHT22;22898;52.102;5.776;2023-07-02T06:27:23;21.20;99.90
36990;DHT22;22898;52.102;5.776;2023-07-02T06:29:48;21.10;99.90
36990;DHT22;22898;52.102;5.776;2023-07-02T06:32:15;21.50;99.90
36990;DHT22;22898;52.102;5.776;2023-07-02T06:34:41;21.70;99.90
36990;DHT22;22898;52.102;5.776;2023-07-02T06:37:07;21.70;99.60
36990;DHT22;22898;52.102;5.776;2023-07-02T06:39:32;21.30;99.90
36990;DHT22;22898;52.102;5.776;2023-07-02T06:41:58;21.00;99.90
36990;DHT22;22898;52.102;5.776;2023-07-02T06:44:23;20.70;99.90
36990;DHT22;22898;52.102;5.776;2023-07-02T06:46:49;20.80;99.90
36990;DHT22;22898;52.102;5.776;2023-07-02T06:49:14;20.70;99.90
36990;DHT22;22898;52.102;5.776;2023-07-02T06:51:40;20.90;99.90
36990;DHT22;22898;52.102;5.776;2023-07-02T06:54:06;21.30;99.90
36990;DHT22;22898;52.102;5.776;2023-07-02T06:56:32;21.30;99.70
36990;DHT22;22898;52.102;5.776;2023-07-02T06:58:59;21.20;99.90
36990;DHT22;22898;52.102;5.776;2023-07-02T07:01:25;20.80;99.90
36990;DHT22;22898;52.102;5.776;2023-07-02T07:03:50;21.10;99.90
36990;DHT22;22898;52.102;5.776;2023-07-02T07:06:16;21.30;99.90
36990;DHT22;22898;52.102;5.776;2023-07-02T07:08:42;21.70;99.80
36990;DHT22;22898;52.102;5.776;2023-07-02T07:11:07;22.20;99.30
36990;DHT22;22898;52.102;5.776;2023-07-02T07:13:33;22.60;98.00
36990;DHT22;22898;52.102;5.776;2023-07-02T07:15:58;22.60;98.20
36990;DHT22;22898;52.102;5.776;2023-07-02T07:18:24;22.50;98.20
36990;DHT22;22898;52.102;5.776;2023-07-02T07:20:49;22.70;97.50
36990;DHT22;22898;52.102;5.776;2023-07-02T07:23:16;22.90;97.10
36990;DHT22;22898;52.102;5.776;2023-07-02T07:25:42;22.50;97.50
36990;DHT22;22898;52.102;5.776;2023-07-02T07:28:08;22.10;97.90
36990;DHT22;22898;52.102;5.776;2023-07-02T07:30:39;21.90;98.00
36990;DHT22;22898;52.102;5.776;2023-07-02T07:33:05;22.00;98.20
36990;DHT22;22898;52.102;5.776;2023-07-02T07:35:30;22.10;98.50
36990;DHT22;22898;52.102;5.776;2023-07-02T07:37:56;22.10;98.20
36990;DHT22;22898;52.102;5.776;2023-07-02T07:40:22;22.00;98.20
36990;DHT22;22898;52.102;5.776;2023-07-02T07:42:47;21.80;98.70
36990;DHT22;22898;52.102;5.776;2023-07-02T07:45:13;22.00;98.20
36990;DHT22;22898;52.102;5.776;2023-07-02T07:47:39;22.00;98.50
36990;DHT22;22898;52.102;5.776;2023-07-02T07:50:05;22.20;98.20
36990;DHT22;22898;52.102;5.776;2023-07-02T07:52:36;22.50;96.80
36990;DHT22;22898;52.102;5.776;2023-07-02T07:55:02;22.60;97.10
36990;DHT22;22898;52.102;5.776;2023-07-02T07:57:28;22.30;96.10
36990;DHT22;22898;52.102;5.776;2023-07-02T07:59:53;21.70;97.10
36990;DHT22;22898;52.102;5.776;2023-07-02T08:02:19;21.80;97.20
36990;DHT22;22898;52.102;5.776;2023-07-02T08:04:45;22.00;97.20
36990;DHT22;22898;52.102;5.776;2023-07-02T08:07:10;22.50;96.10
36990;DHT22;22898;52.102;5.776;2023-07-02T08:09:36;22.40;95.30
36990;DHT22;22898;52.102;5.776;2023-07-02T08:12:02;21.60;95.90
36990;DHT22;22898;52.102;5.776;2023-07-02T08:14:28;21.70;95.10
36990;DHT22;22898;52.102;5.776;2023-07-02T08:16:54;22.30;93.60
36990;DHT22;22898;52.102;5.776;2023-07-02T08:19:19;22.50;93.00
36990;DHT22;22898;52.102;5.776;2023-07-02T08:21:46;22.50;92.20
36990;DHT22;22898;52.102;5.776;2023-07-02T08:24:12;22.00;92.90
36990;DHT22;22898;52.102;5.776;2023-07-02T08:26:38;21.80;92.50
36990;DHT22;22898;52.102;5.776;2023-07-02T08:29:03;21.90;92.20
36990;DHT22;22898;52.102;5.776;2023-07-02T08:31:29;22.10;93.30
36990;DHT22;22898;52.102;5.776;2023-07-02T08:33:55;22.50;91.40
36990;DHT22;22898;52.102;5.776;2023-07-02T08:36:20;22.90;91.20
36990;DHT22;22898;52.102;5.776;2023-07-02T08:38:46;23.00;90.40
36990;DHT22;22898;52.102;5.776;2023-07-02T08:41:12;22.90;91.50
36990;DHT22;22898;52.102;5.776;2023-07-02T08:43:37;23.20;90.10
36990;DHT22;22898;52.102;5.776;2023-07-02T08:46:03;23.00;90.20
36990;DHT22;22898;52.102;5.776;2023-07-02T08:48:29;22.90;90.80
36990;DHT22;22898;52.102;5.776;2023-07-02T08:50:56;23.00;90.00
36990;DHT22;22898;52.102;5.776;2023-07-02T08:53:22;22.80;89.70
36990;DHT22;22898;52.102;5.776;2023-07-02T08:55:55;22.90;88.20
36990;DHT22;22898;52.102;5.776;2023-07-02T08:58:22;23.10;86.80
36990;DHT22;22898;52.102;5.776;2023-07-02T09:01:06;22.60;85.50
36990;DHT22;22898;52.102;5.776;2023-07-02T09:03:32;22.10;87.70
36990;DHT22;22898;52.102;5.776;2023-07-02T09:05:58;22.20;88.70
36990;DHT22;22898;52.102;5.776;2023-07-02T09:08:25;22.70;88.60
36990;DHT22;22898;52.102;5.776;2023-07-02T09:10:51;23.30;86.40
36990;DHT22;22898;52.102;5.776;2023-07-02T09:13:16;23.30;83.50
36990;DHT22;22898;52.102;5.776;2023-07-02T09:15:42;22.70;85.40
36990;DHT22;22898;52.102;5.776;2023-07-02T09:18:15;22.50;87.30
36990;DHT22;22898;52.102;5.776;2023-07-02T09:20:41;22.70;85.80
36990;DHT22;22898;52.102;5.776;2023-07-02T09:23:06;22.70;81.40
36990;DHT22;22898;52.102;5.776;2023-07-02T09:25:40;21.90;84.40
36990;DHT22;22898;52.102;5.776;2023-07-02T09:28:19;22.50;86.60
36990;DHT22;22898;52.102;5.776;2023-07-02T09:30:58;23.10;83.40
36990;DHT22;22898;52.102;5.776;2023-07-02T09:33:25;22.70;83.30
36990;DHT22;22898;52.102;5.776;2023-07-02T09:35:50;22.50;85.60
36990;DHT22;22898;52.102;5.776;2023-07-02T09:38:18;22.60;83.00
36990;DHT22;22898;52.102;5.776;2023-07-02T09:40:49;22.80;84.20
36990;DHT22;22898;52.102;5.776;2023-07-02T09:43:16;23.00;81.90
36990;DHT22;22898;52.102;5.776;2023-07-02T09:45:46;22.70;83.00
36990;DHT22;22898;52.102;5.776;2023-07-02T09:48:16;22.80;83.60
36990;DHT22;22898;52.102;5.776;2023-07-02T09:50:47;23.10;83.30
36990;DHT22;22898;52.102;5.776;2023-07-02T09:53:13;23.40;83.50
36990;DHT22;22898;52.102;5.776;2023-07-02T09:55:47;23.40;83.20
36990;DHT22;22898;52.102;5.776;2023-07-02T09:58:13;23.20;82.90
36990;DHT22;22898;52.102;5.776;2023-07-02T10:00:39;22.80;83.10
36990;DHT22;22898;52.102;5.776;2023-07-02T10:03:05;22.80;82.00
36990;DHT22;22898;52.102;5.776;2023-07-02T10:05:32;23.00;81.50
36990;DHT22;22898;52.102;5.776;2023-07-02T10:07:59;23.10;78.40
36990;DHT22;22898;52.102;5.776;2023-07-02T10:10:36;23.20;80.00
36990;DHT22;22898;52.102;5.776;2023-07-02T10:13:02;23.10;80.70
36990;DHT22;22898;52.102;5.776;2023-07-02T10:15:28;23.50;80.10
36990;DHT22;22898;52.102;5.776;2023-07-02T10:17:56;23.60;79.80
36990;DHT22;22898;52.102;5.776;2023-07-02T10:20:39;23.90;77.90
36990;DHT22;22898;52.102;5.776;2023-07-02T10:23:07;24.40;73.80
36990;DHT22;22898;52.102;5.776;2023-07-02T10:25:35;24.40;75.80
36990;DHT22;22898;52.102;5.776;2023-07-02T10:28:17;24.40;73.90
36990;DHT22;22898;52.102;5.776;2023-07-02T10:30:43;24.50;72.40
36990;DHT22;22898;52.102;5.776;2023-07-02T10:33:10;24.50;70.70
36990;DHT22;22898;52.102;5.776;2023-07-02T10:35:37;24.40;70.80
36990;DHT22;22898;52.102;5.776;2023-07-02T10:38:03;24.40;70.10
36990;DHT22;22898;52.102;5.776;2023-07-02T10:40:29;24.40;69.80
36990;DHT22;22898;52.102;5.776;2023-07-02T10:42:55;23.90;72.00
36990;DHT22;22898;52.102;5.776;2023-07-02T10:45:31;24.10;73.00
36990;DHT22;22898;52.102;5.776;2023-07-02T10:47:57;24.30;70.40
36990;DHT22;22898;52.102;5.776;2023-07-02T10:50:22;24.60;68.40
36990;DHT22;22898;52.102;5.776;2023-07-02T10:52:49;24.50;68.50
36990;DHT22;22898;52.102;5.776;2023-07-02T10:55:19;24.10;69.80
36990;DHT22;22898;52.102;5.776;2023-07-02T10:57:45;24.10;71.20
36990;DHT22;22898;52.102;5.776;2023-07-02T11:00:12;24.50;72.00
36990;DHT22;22898;52.102;5.776;2023-07-02T11:02:37;24.80;69.80
36990;DHT22;22898;52.102;5.776;2023-07-02T11:05:07;25.00;70.50
36990;DHT22;22898;52.102;5.776;2023-07-02T11:07:40;25.30;68.80
36990;DHT22;22898;52.102;5.776;2023-07-02T11:10:07;25.60;68.60
36990;DHT22;22898;52.102;5.776;2023-07-02T11:12:33;25.30;67.00
36990;DHT22;22898;52.102;5.776;2023-07-02T11:15:09;24.90;67.20
36990;DHT22;22898;52.102;5.776;2023-07-02T11:17:34;24.80;66.90
36990;DHT22;22898;52.102;5.776;2023-07-02T11:20:00;24.80;66.00
36990;DHT22;22898;52.102;5.776;2023-07-02T11:22:33;24.70;68.70
36990;DHT22;22898;52.102;5.776;2023-07-02T11:25:12;25.10;66.70
36990;DHT22;22898;52.102;5.776;2023-07-02T11:27:39;25.00;67.50
36990;DHT22;22898;52.102;5.776;2023-07-02T11:30:06;25.10;66.80
36990;DHT22;22898;52.102;5.776;2023-07-02T11:32:34;25.20;65.80
36990;DHT22;22898;52.102;5.776;2023-07-02T11:35:00;25.00;67.60
36990;DHT22;22898;52.102;5.776;2023-07-02T11:37:26;24.80;68.20
36990;DHT22;22898;52.102;5.776;2023-07-02T11:39:51;24.80;68.20
36990;DHT22;22898;52.102;5.776;2023-07-02T11:42:17;24.70;68.80
36990;DHT22;22898;52.102;5.776;2023-07-02T11:44:42;24.50;70.20
36990;DHT22;22898;52.102;5.776;2023-07-02T11:47:08;24.50;70.00
36990;DHT22;22898;52.102;5.776;2023-07-02T11:49:34;24.60;70.00
36990;DHT22;22898;52.102;5.776;2023-07-02T11:51:59;24.20;69.00
36990;DHT22;22898;52.102;5.776;2023-07-02T11:54:25;24.00;70.10
36990;DHT22;22898;52.102;5.776;2023-07-02T11:56:50;24.10;70.30
36990;DHT22;22898;52.102;5.776;2023-07-02T11:59:16;24.40;69.10
36990;DHT22;22898;52.102;5.776;2023-07-02T12:01:42;24.50;68.00
36990;DHT22;22898;52.102;5.776;2023-07-02T12:04:09;24.50;69.60
36990;DHT22;22898;52.102;5.776;2023-07-02T12:06:37;24.60;68.90
36990;DHT22;22898;52.102;5.776;2023-07-02T12:09:02;24.60;68.40
36990;DHT22;22898;52.102;5.776;2023-07-02T12:11:28;24.50;67.90
36990;DHT22;22898;52.102;5.776;2023-07-02T12:13:57;24.70;69.80
36990;DHT22;22898;52.102;5.776;2023-07-02T12:16:23;24.70;68.50
36990;DHT22;22898;52.102;5.776;2023-07-02T12:18:49;24.50;68.90
36990;DHT22;22898;52.102;5.776;2023-07-02T12:21:15;24.60;68.80
36990;DHT22;22898;52.102;5.776;2023-07-02T12:23:43;24.50;68.10
36990;DHT22;22898;52.102;5.776;2023-07-02T12:26:09;24.30;67.80
36990;DHT22;22898;52.102;5.776;2023-07-02T12:28:34;24.30;67.60
36990;DHT22;22898;52.102;5.776;2023-07-02T12:31:00;24.50;65.50
36990;DHT22;22898;52.102;5.776;2023-07-02T12:33:27;24.50;65.50
36990;DHT22;22898;52.102;5.776;2023-07-02T12:35:54;24.60;67.90
36990;DHT22;22898;52.102;5.776;2023-07-02T12:38:19;24.90;67.30
36990;DHT22;22898;52.102;5.776;2023-07-02T12:40:45;25.00;67.90
36990;DHT22;22898;52.102;5.776;2023-07-02T12:43:11;25.10;65.80
36990;DHT22;22898;52.102;5.776;2023-07-02T12:45:37;25.50;64.30
36990;DHT22;22898;52.102;5.776;2023-07-02T12:48:02;25.50;63.50
36990;DHT22;22898;52.102;5.776;2023-07-02T12:50:28;25.40;63.70
36990;DHT22;22898;52.102;5.776;2023-07-02T12:52:54;25.50;65.00
36990;DHT22;22898;52.102;5.776;2023-07-02T12:55:19;25.60;63.70
36990;DHT22;22898;52.102;5.776;2023-07-02T12:57:45;25.90;62.70
36990;DHT22;22898;52.102;5.776;2023-07-02T13:00:11;25.90;62.60
36990;DHT22;22898;52.102;5.776;2023-07-02T13:02:37;25.90;62.20
36990;DHT22;22898;52.102;5.776;2023-07-02T13:05:02;26.00;63.80
36990;DHT22;22898;52.102;5.776;2023-07-02T13:07:28;26.00;63.50
36990;DHT22;22898;52.102;5.776;2023-07-02T13:09:55;25.90;62.50
36990;DHT22;22898;52.102;5.776;2023-07-02T13:12:21;25.80;62.40
36990;DHT22;22898;52.102;5.776;2023-07-02T13:14:47;25.70;63.60
36990;DHT22;22898;52.102;5.776;2023-07-02T13:17:12;25.50;64.40
36990;DHT22;22898;52.102;5.776;2023-07-02T13:19:38;25.90;64.70
36990;DHT22;22898;52.102;5.776;2023-07-02T13:22:04;25.30;63.50
36990;DHT22;22898;52.102;5.776;2023-07-02T13:24:33;24.60;64.40
36990;DHT22;22898;52.102;5.776;2023-07-02T13:27:13;24.70;65.40
36990;DHT22;22898;52.102;5.776;2023-07-02T13:29:39;25.10;64.20
36990;DHT22;22898;52.102;5.776;2023-07-02T13:32:05;25.30;63.40
36990;DHT22;22898;52.102;5.776;2023-07-02T13:34:31;25.10;65.50
36990;DHT22;22898;52.102;5.776;2023-07-02T13:36:57;25.40;64.10
36990;DHT22;22898;52.102;5.776;2023-07-02T13:39:22;25.50;63.10
36990;DHT22;22898;52.102;5.776;2023-07-02T13:41:48;25.00;63.10
36990;DHT22;22898;52.102;5.776;2023-07-02T13:44:14;24.50;64.40
36990;DHT22;22898;52.102;5.776;2023-07-02T13:46:41;24.10;65.40
36990;DHT22;22898;52.102;5.776;2023-07-02T13:49:07;24.20;65.40
36990;DHT22;22898;52.102;5.776;2023-07-02T13:51:32;24.00;65.60
36990;DHT22;22898;52.102;5.776;2023-07-02T13:53:58;24.60;65.20
36990;DHT22;22898;52.102;5.776;2023-07-02T13:56:23;24.40;66.00
36990;DHT22;22898;52.102;5.776;2023-07-02T14:01:21;26.10;64.00
36990;DHT22;22898;52.102;5.776;2023-07-02T14:03:47;26.50;62.60
36990;DHT22;22898;52.102;5.776;2023-07-02T14:06:13;26.70;63.70
36990;DHT22;22898;52.102;5.776;2023-07-02T14:08:39;26.70;64.10
36990;DHT22;22898;52.102;5.776;2023-07-02T14:11:05;26.40;62.40
36990;DHT22;22898;52.102;5.776;2023-07-02T14:13:30;25.90;64.80
36990;DHT22;22898;52.102;5.776;2023-07-02T14:15:56;25.80;63.90
36990;DHT22;22898;52.102;5.776;2023-07-02T14:18:22;25.70;63.20
36990;DHT22;22898;52.102;5.776;2023-07-02T14:20:47;25.90;64.20
36990;DHT22;22898;52.102;5.776;2023-07-02T14:23:13;25.40;64.50
36990;DHT22;22898;52.102;5.776;2023-07-02T14:25:38;25.40;66.50
36990;DHT22;22898;52.102;5.776;2023-07-02T14:28:04;25.60;65.00
36990;DHT22;22898;52.102;5.776;2023-07-02T14:30:30;25.20;64.30
36990;DHT22;22898;52.102;5.776;2023-07-02T14:32:55;25.50;65.50
36990;DHT22;22898;52.102;5.776;2023-07-02T14:35:21;25.30;65.20
36990;DHT22;22898;52.102;5.776;2023-07-02T14:37:50;25.40;64.80
36990;DHT22;22898;52.102;5.776;2023-07-02T14:40:16;25.20;65.70
36990;DHT22;22898;52.102;5.776;2023-07-02T14:42:42;25.50;65.20
36990;DHT22;22898;52.102;5.776;2023-07-02T14:45:07;25.50;63.80
36990;DHT22;22898;52.102;5.776;2023-07-02T14:47:34;25.20;64.70
36990;DHT22;22898;52.102;5.776;2023-07-02T14:50:00;24.90;65.20
36990;DHT22;22898;52.102;5.776;2023-07-02T14:52:26;25.30;64.80
36990;DHT22;22898;52.102;5.776;2023-07-02T14:54:52;25.50;64.90
36990;DHT22;22898;52.102;5.776;2023-07-02T14:57:18;25.90;64.70
36990;DHT22;22898;52.102;5.776;2023-07-02T14:59:45;26.50;64.10
36990;DHT22;22898;52.102;5.776;2023-07-02T15:02:12;26.80;63.20
36990;DHT22;22898;52.102;5.776;2023-07-02T15:04:38;27.00;61.60
36990;DHT22;22898;52.102;5.776;2023-07-02T15:07:04;26.70;60.70
36990;DHT22;22898;52.102;5.776;2023-07-02T15:09:30;26.30;61.40
36990;DHT22;22898;52.102;5.776;2023-07-02T15:11:56;26.20;62.90
36990;DHT22;22898;52.102;5.776;2023-07-02T15:14:21;26.00;61.40
36990;DHT22;22898;52.102;5.776;2023-07-02T15:16:47;26.20;61.40
36990;DHT22;22898;52.102;5.776;2023-07-02T15:19:13;26.00;60.00
36990;DHT22;22898;52.102;5.776;2023-07-02T15:21:40;25.50;61.90
36990;DHT22;22898;52.102;5.776;2023-07-02T15:24:06;25.80;62.30
36990;DHT22;22898;52.102;5.776;2023-07-02T15:26:31;25.80;60.00
36990;DHT22;22898;52.102;5.776;2023-07-02T15:28:57;25.70;60.10